createdAt,value
2018-02-15T00:01:07.488Z,35.10
2018-02-15T00:03:36.765Z,35.43
2018-02-15T00:06:07.545Z,35.63
2018-02-15T00:08:36.826Z,38.97
2018-02-15T00:11:06.135Z,38.60
2018-02-15T00:13:35.714Z,40.97
2018-02-15T00:16:06.642Z,35.60
2018-02-15T00:18:35.912Z,44.80
2018-02-15T00:21:06.308Z,39.63
2018-02-15T00:23:35.640Z,45.40
2018-02-15T00:26:05.941Z,42.47
2018-02-15T00:28:35.602Z,39.90
2018-02-15T00:31:05.492Z,42.43
2018-02-15T00:33:35.088Z,40.93
2018-02-15T00:36:06.366Z,45.90
2018-02-15T00:38:35.651Z,42.30
2018-02-15T00:41:05.575Z,48.80
2018-02-15T00:43:36.411Z,40.10
2018-02-15T00:46:06.034Z,44.33
2018-02-15T00:48:35.311Z,45.10
2018-02-15T00:51:07.053Z,43.37
2018-02-15T00:53:36.331Z,48.83
2018-02-15T00:56:06.095Z,47.37
2018-02-15T00:58:35.877Z,50.30
2018-02-15T01:01:05.571Z,46.63
2018-02-15T01:03:34.846Z,49.10
2018-02-15T01:06:06.028Z,44.00
2018-02-15T01:08:35.354Z,48.43
2018-02-15T01:11:06.453Z,43.10
2018-02-15T01:13:36.003Z,51.13
2018-02-15T01:16:06.502Z,43.73
2018-02-15T01:18:35.750Z,44.30
2018-02-15T01:21:06.814Z,43.83
2018-02-15T01:23:36.090Z,43.27
2018-02-15T01:26:06.279Z,44.27
2018-02-15T01:28:37.027Z,48.97
2018-02-15T01:31:07.011Z,43.77
2018-02-15T01:33:36.554Z,48.67
2018-02-15T01:36:06.299Z,46.50
2018-02-15T01:38:35.547Z,46.67
2018-02-15T01:41:06.241Z,43.40
2018-02-15T01:43:37.010Z,50.47
2018-02-15T01:46:07.782Z,45.57
2018-02-15T01:48:37.237Z,45.30
2018-02-15T01:51:08.454Z,49.50
2018-02-15T01:53:38.364Z,41.67
2018-02-15T01:56:07.665Z,43.27
2018-02-15T01:58:37.304Z,51.90
2018-02-15T02:01:06.650Z,41.07
2018-02-15T02:03:35.882Z,39.33
2018-02-15T02:06:07.362Z,39.80
2018-02-15T02:08:36.735Z,43.33
2018-02-15T02:11:07.222Z,44.90
2018-02-15T02:13:36.843Z,39.23
2018-02-15T02:16:06.850Z,49.43
2018-02-15T02:18:36.812Z,42.40
2018-02-15T02:21:07.982Z,36.67
2018-02-15T02:23:37.446Z,40.30
2018-02-15T02:26:06.803Z,38.33
2018-02-15T02:28:36.393Z,43.60
2018-02-15T02:31:06.237Z,36.97
2018-02-15T02:33:35.455Z,34.77
2018-02-15T02:36:05.880Z,34.53
2018-02-15T02:38:35.132Z,38.97
2018-02-15T02:41:06.474Z,41.00
2018-02-15T02:43:36.118Z,38.10
2018-02-15T02:46:07.111Z,36.10
2018-02-15T02:48:36.430Z,34.83
2018-02-15T02:51:07.473Z,34.33
2018-02-15T02:53:37.235Z,35.27
2018-02-15T02:56:06.729Z,35.33
2018-02-15T02:58:36.336Z,35.03
2018-02-15T03:01:06.698Z,32.00
2018-02-15T03:03:36.672Z,33.30
2018-02-15T03:06:07.661Z,34.40
2018-02-15T03:08:36.968Z,36.40
2018-02-15T03:11:06.260Z,32.27
2018-02-15T03:13:37.211Z,36.20
2018-02-15T03:16:06.566Z,36.13
2018-02-15T03:18:35.814Z,34.30
2018-02-15T03:21:07.696Z,33.17
2018-02-15T03:23:38.996Z,37.63
2018-02-15T03:26:08.929Z,33.00
2018-02-15T03:28:38.684Z,32.17
2018-02-15T03:31:09.452Z,38.30
2018-02-15T03:33:39.049Z,30.17
2018-02-15T03:36:08.676Z,29.27
2018-02-15T03:38:38.210Z,36.33
2018-02-15T03:41:07.536Z,32.73
2018-02-15T03:43:38.323Z,29.33
2018-02-15T03:46:07.686Z,29.57
2018-02-15T03:48:36.971Z,33.67
2018-02-15T03:51:06.837Z,28.90
2018-02-15T03:53:36.122Z,25.43
2018-02-15T03:56:06.619Z,29.13
2018-02-15T03:58:39.396Z,34.00
2018-02-15T04:01:10.441Z,28.00
2018-02-15T04:03:40.110Z,28.43
2018-02-15T04:06:11.026Z,31.33
2018-02-15T04:08:40.514Z,27.30
2018-02-15T04:11:10.548Z,26.90
2018-02-15T04:13:40.114Z,28.87
2018-02-15T04:16:09.412Z,36.70
2018-02-15T04:18:38.664Z,26.50
2018-02-15T04:21:08.351Z,26.37
2018-02-15T04:23:38.290Z,26.00
2018-02-15T04:26:07.542Z,30.83
2018-02-15T04:28:37.766Z,31.10
2018-02-15T04:31:07.163Z,28.20
2018-02-15T04:33:36.446Z,28.83
2018-02-15T04:36:09.335Z,28.57
2018-02-15T04:38:39.524Z,24.10
2018-02-15T04:41:09.138Z,22.50
2018-02-15T04:43:39.292Z,28.63
2018-02-15T04:46:10.950Z,27.40
2018-02-15T04:48:40.762Z,24.90
2018-02-15T04:51:42.608Z,24.93
2018-02-15T04:54:11.930Z,23.50
2018-02-15T04:56:42.424Z,30.13
2018-02-15T04:59:11.686Z,24.70
2018-02-15T05:01:41.201Z,26.20
2018-02-15T05:04:12.787Z,23.20
2018-02-15T05:06:42.043Z,24.07
2018-02-15T05:09:11.408Z,22.37
2018-02-15T05:11:41.034Z,21.93
2018-02-15T05:14:10.379Z,20.07
2018-02-15T05:16:39.655Z,23.53
2018-02-15T05:19:09.300Z,19.10
2018-02-15T05:21:38.538Z,24.77
2018-02-15T05:24:08.979Z,25.40
2018-02-15T05:26:38.670Z,20.37
2018-02-15T05:29:08.150Z,20.33
2018-02-15T05:31:37.374Z,26.50
2018-02-15T05:34:06.957Z,19.13
2018-02-15T05:36:36.331Z,20.07
2018-02-15T05:39:06.941Z,21.17
2018-02-15T05:41:36.539Z,19.10
2018-02-15T05:44:07.321Z,27.50
2018-02-15T05:46:36.555Z,20.23
2018-02-15T05:49:06.443Z,20.20
2018-02-15T05:51:35.655Z,19.10
2018-02-15T05:54:06.045Z,16.40
2018-02-15T05:56:35.590Z,21.53
2018-02-15T05:59:06.468Z,23.63
2018-02-15T06:01:35.747Z,19.57
2018-02-15T06:04:07.903Z,24.80
2018-02-15T06:06:37.170Z,27.30
2018-02-15T06:09:06.861Z,22.90
2018-02-15T06:11:36.453Z,20.50
2018-02-15T06:14:06.154Z,21.43
2018-02-15T06:16:35.923Z,19.03
2018-02-15T06:19:05.830Z,20.83
2018-02-15T06:21:35.080Z,19.70
2018-02-15T06:24:05.440Z,21.60
2018-02-15T06:26:34.967Z,21.03
2018-02-15T06:29:06.613Z,19.87
2018-02-15T06:31:36.032Z,23.10
2018-02-15T06:34:07.204Z,19.23
2018-02-15T06:36:36.517Z,23.67
2018-02-15T06:39:06.689Z,24.57
2018-02-15T06:41:36.225Z,19.53
2018-02-15T06:44:06.877Z,19.90
2018-02-15T06:46:36.161Z,21.03
2018-02-15T06:49:06.870Z,20.23
2018-02-15T06:51:36.142Z,16.20
2018-02-15T06:54:06.166Z,21.93
2018-02-15T06:56:35.709Z,19.80
2018-02-15T06:59:06.492Z,18.83
2018-02-15T07:01:35.784Z,19.07
2018-02-15T07:04:06.764Z,17.97
2018-02-15T07:06:36.422Z,15.53
2018-02-15T07:09:07.313Z,15.13
2018-02-15T07:11:37.619Z,23.20
2018-02-15T07:14:07.031Z,18.53
2018-02-15T07:16:36.290Z,32.93
2018-02-15T07:19:05.883Z,17.30
2018-02-15T07:21:35.220Z,19.20
2018-02-15T07:24:06.855Z,14.37
2018-02-15T07:26:36.439Z,16.90
2018-02-15T07:29:06.255Z,20.33
2018-02-15T07:31:35.598Z,19.90
2018-02-15T07:34:06.481Z,20.13
2018-02-15T07:36:35.775Z,22.13
2018-02-15T07:39:05.735Z,21.30
2018-02-15T07:41:35.375Z,19.90
2018-02-15T07:44:06.629Z,22.17
2018-02-15T07:46:39.202Z,24.40
2018-02-15T07:49:10.185Z,26.37
2018-02-15T07:51:40.993Z,22.87
2018-02-15T07:54:10.491Z,20.43
2018-02-15T07:56:42.902Z,24.93
2018-02-15T07:59:14.633Z,24.63
2018-02-15T08:01:44.374Z,27.50
2018-02-15T08:04:15.384Z,27.70
2018-02-15T08:06:44.789Z,25.23
2018-02-15T08:09:14.490Z,25.37
2018-02-15T08:11:45.649Z,30.20
2018-02-15T08:14:14.899Z,32.77
2018-02-15T08:16:49.916Z,29.00
2018-02-15T08:19:22.145Z,33.47
2018-02-15T08:21:52.350Z,32.87
2018-02-15T08:24:23.914Z,30.77
2018-02-15T08:26:54.187Z,37.93
2018-02-15T08:29:24.457Z,29.50
2018-02-15T08:31:53.780Z,26.83
2018-02-15T08:34:25.481Z,31.67
2018-02-15T08:36:55.537Z,27.47
2018-02-15T08:39:25.757Z,27.07
2018-02-15T08:41:55.823Z,28.90
2018-02-15T08:44:30.225Z,34.67
2018-02-15T08:47:03.019Z,28.97
2018-02-15T08:49:34.039Z,30.10
2018-02-15T08:52:05.171Z,27.43
2018-02-15T08:54:36.599Z,28.53
2018-02-15T08:57:06.378Z,28.70
2018-02-15T08:59:37.134Z,30.70
2018-02-15T09:02:07.244Z,39.10
2018-02-15T09:04:37.741Z,38.07
2018-02-15T09:07:07.091Z,37.57
2018-02-15T09:09:38.648Z,46.00
2018-02-15T09:12:08.188Z,38.10
2018-02-15T09:14:40.608Z,33.73
2018-02-15T09:17:11.882Z,38.03
2018-02-15T09:19:43.636Z,34.23
2018-02-15T09:22:13.852Z,33.77
2018-02-15T09:24:43.560Z,36.63
2018-02-15T09:27:13.250Z,34.10
2018-02-15T09:29:42.872Z,33.77
2018-02-15T09:32:12.229Z,34.53
2018-02-15T09:37:09.572Z,36.40
2018-02-15T09:39:39.258Z,35.43
2018-02-15T09:42:08.580Z,43.13
2018-02-15T09:44:38.281Z,35.50
2018-02-15T09:47:07.946Z,34.90
2018-02-15T09:49:37.251Z,40.87
2018-02-15T09:52:06.522Z,34.33
2018-02-15T09:54:35.756Z,35.93
2018-02-15T09:57:06.700Z,32.27
2018-02-15T09:59:35.978Z,31.50
2018-02-15T10:02:06.528Z,37.60
2018-02-15T10:04:36.158Z,40.30
2018-02-15T10:07:06.744Z,28.47
2018-02-15T10:09:36.026Z,32.10
2018-02-15T10:12:06.896Z,30.50
2018-02-15T10:14:36.305Z,27.77
2018-02-15T10:17:06.344Z,26.53
2018-02-15T10:19:36.013Z,25.40
2018-02-15T10:22:06.279Z,29.07
2018-02-15T10:24:35.564Z,28.97
2018-02-15T10:27:05.952Z,25.93
2018-02-15T10:29:35.234Z,24.03
2018-02-15T10:32:06.216Z,35.60
2018-02-15T10:34:35.893Z,27.50
2018-02-15T10:37:05.640Z,29.20
2018-02-15T10:39:34.996Z,29.20
2018-02-15T10:42:07.015Z,29.90
2018-02-15T10:44:36.558Z,32.53
2018-02-15T10:47:07.261Z,28.87
2018-02-15T10:49:36.866Z,31.43
2018-02-15T10:52:06.729Z,29.30
2018-02-15T10:54:36.014Z,32.90
2018-02-15T10:57:09.249Z,25.57
2018-02-15T10:59:41.527Z,28.07
2018-02-15T11:02:14.964Z,26.67
2018-02-15T11:04:48.764Z,30.10
2018-02-15T11:07:18.239Z,27.10
2018-02-15T11:09:47.516Z,33.13
2018-02-15T11:12:17.107Z,38.23
2018-02-15T11:14:46.534Z,30.17
2018-02-15T11:17:15.858Z,28.50
2018-02-15T11:19:45.437Z,23.97
2018-02-15T11:22:14.674Z,24.70
2018-02-15T11:24:43.942Z,28.20
2018-02-15T11:29:40.140Z,25.60
2018-02-15T11:32:09.758Z,24.50
2018-02-15T11:34:39.608Z,31.50
2018-02-15T11:37:08.970Z,29.20
2018-02-15T11:42:19.278Z,30.10
2018-02-15T11:44:48.582Z,30.93
2018-02-15T11:47:19.162Z,29.47
2018-02-15T11:49:48.407Z,30.00
2018-02-15T11:52:17.707Z,26.67
2018-02-15T11:54:47.416Z,28.00
2018-02-15T11:57:16.716Z,31.90
2018-02-15T11:59:45.980Z,31.37
2018-02-15T12:02:16.482Z,29.63
2018-02-15T12:04:45.997Z,30.47
2018-02-15T12:07:17.075Z,28.47
2018-02-15T12:09:46.641Z,28.93
2018-02-15T12:12:15.869Z,28.43
2018-02-15T12:14:45.165Z,30.90
2018-02-15T12:17:14.699Z,29.53
2018-02-15T12:19:44.256Z,33.03
2018-02-15T12:22:13.543Z,29.33
2018-02-15T12:24:43.272Z,28.43
2018-02-15T12:27:14.408Z,26.43
2018-02-15T12:29:43.666Z,24.70
2018-02-15T12:32:13.870Z,24.80
2018-02-15T12:34:43.142Z,34.77
2018-02-15T12:37:13.353Z,29.57
2018-02-15T12:39:42.921Z,30.63
2018-02-15T12:42:12.175Z,30.87
2018-02-15T12:44:41.483Z,26.77
2018-02-15T12:47:10.996Z,25.93
2018-02-15T12:49:40.263Z,28.70
2018-02-15T12:52:09.507Z,32.90
2018-02-15T12:54:39.059Z,26.77
2018-02-15T12:57:08.291Z,34.37
2018-02-15T12:59:38.006Z,28.80
2018-02-15T13:02:07.574Z,31.63
2018-02-15T13:04:36.893Z,30.77
2018-02-15T13:07:06.128Z,38.33
2018-02-15T13:09:36.351Z,31.17
2018-02-15T13:12:08.465Z,35.27
2018-02-15T13:14:37.822Z,30.50
2018-02-15T13:17:07.520Z,34.03
2018-02-15T13:19:47.676Z,29.87
2018-02-15T13:22:26.125Z,29.00
2018-02-15T13:24:55.771Z,30.77
2018-02-15T13:27:34.490Z,30.67
2018-02-15T13:30:05.390Z,31.37
2018-02-15T13:32:34.684Z,31.30
2018-02-15T13:35:04.829Z,34.50
2018-02-15T13:37:34.103Z,32.27
2018-02-15T13:40:06.340Z,39.23
2018-02-15T13:42:35.877Z,34.73
2018-02-15T13:45:06.151Z,35.50
2018-02-15T13:47:35.843Z,36.93
2018-02-15T13:50:06.523Z,35.00
2018-02-15T13:52:35.795Z,38.47
2018-02-15T13:55:05.648Z,37.97
2018-02-15T13:57:34.979Z,44.20
2018-02-15T14:00:06.650Z,39.50
2018-02-15T14:02:36.516Z,41.80
2018-02-15T14:05:06.269Z,43.63
2018-02-15T14:07:35.734Z,36.50
2018-02-15T14:10:08.317Z,42.07
2018-02-15T14:12:38.011Z,42.10
2018-02-15T14:15:07.410Z,35.20
2018-02-15T14:17:36.704Z,44.60
2018-02-15T14:20:06.575Z,42.70
2018-02-15T14:22:35.833Z,43.77
2018-02-15T14:25:05.859Z,42.23
2018-02-15T14:27:35.135Z,42.90
2018-02-15T14:30:06.781Z,38.90
2018-02-15T14:32:36.674Z,40.73
2018-02-15T14:35:06.356Z,49.93
2018-02-15T14:37:36.023Z,46.87
2018-02-15T14:40:06.986Z,45.73
2018-02-15T14:42:37.199Z,50.47
2018-02-15T14:45:06.711Z,47.73
2018-02-15T14:47:36.470Z,47.10
2018-02-15T14:50:06.682Z,52.93
2018-02-15T14:52:36.121Z,45.33
2018-02-15T14:55:07.510Z,47.77
2018-02-15T14:57:36.803Z,183.53
2018-02-15T15:00:07.250Z,53.43
2018-02-15T15:02:37.785Z,53.23
2018-02-15T15:05:07.658Z,54.57
2018-02-15T15:07:37.060Z,51.17
2018-02-15T15:10:06.751Z,48.60
2018-02-15T15:12:36.020Z,46.33
2018-02-15T15:15:06.572Z,46.00
2018-02-15T15:17:36.199Z,48.80
2018-02-15T15:20:06.737Z,53.87
2018-02-15T15:22:36.043Z,49.40
2018-02-15T15:25:06.375Z,45.63
2018-02-15T15:27:35.676Z,52.00
2018-02-15T15:30:11.991Z,56.90
2018-02-15T15:32:41.552Z,57.77
2018-02-15T15:35:11.121Z,95.10
2018-02-15T15:37:43.197Z,53.57
2018-02-15T15:40:12.746Z,49.47
2018-02-15T15:42:42.027Z,55.17
2018-02-15T15:45:11.324Z,60.90
2018-02-15T15:47:40.998Z,61.57
2018-02-15T15:50:10.953Z,51.97
2018-02-15T15:52:40.194Z,56.10
2018-02-15T15:55:09.910Z,50.33
2018-02-15T15:57:53.660Z,52.40
2018-02-15T16:00:23.566Z,57.50
2018-02-15T16:02:52.859Z,53.83
2018-02-15T16:05:22.162Z,55.27
2018-02-15T16:07:51.827Z,55.77
2018-02-15T16:10:21.108Z,48.50
2018-02-15T16:12:50.363Z,51.90
2018-02-15T16:15:19.638Z,51.77
2018-02-15T16:17:48.947Z,52.23
2018-02-15T16:20:18.389Z,50.20
2018-02-15T16:22:48.602Z,53.57
2018-02-15T16:25:18.089Z,49.63
2018-02-15T16:27:47.458Z,50.87
2018-02-15T16:30:17.651Z,50.93
2018-02-15T16:32:47.224Z,66.33
2018-02-15T16:35:16.509Z,59.03
2018-02-15T16:37:46.235Z,58.20
2018-02-15T16:40:15.561Z,55.43
2018-02-15T16:42:44.864Z,59.90
2018-02-15T16:45:14.487Z,63.70
2018-02-15T16:47:43.721Z,65.50
2018-02-15T16:50:13.021Z,57.00
2018-02-15T16:52:42.585Z,65.37
2018-02-15T16:55:12.882Z,66.30
2018-02-15T16:57:42.172Z,65.33
2018-02-15T17:00:11.666Z,57.03
2018-02-15T17:02:40.931Z,64.97
2018-02-15T17:05:10.512Z,71.93
2018-02-15T17:07:39.805Z,57.47
2018-02-15T17:10:09.124Z,64.47
2018-02-15T17:12:38.419Z,63.07
2018-02-15T17:15:07.884Z,64.60
2018-02-15T17:17:37.603Z,57.20
2018-02-15T17:20:08.522Z,54.00
2018-02-15T17:23:08.109Z,61.33
2018-02-15T17:25:37.639Z,67.60
2018-02-15T17:28:07.092Z,62.60
2018-02-15T17:30:36.392Z,61.20
2018-02-15T17:33:06.059Z,68.93
2018-02-15T17:35:35.282Z,62.70
2018-02-15T17:38:06.578Z,61.70
2018-02-15T17:40:36.365Z,64.67
2018-02-15T17:43:07.785Z,60.60
2018-02-15T17:45:37.515Z,66.27
2018-02-15T17:48:07.004Z,68.43
2018-02-15T17:50:36.354Z,63.67
2018-02-15T17:53:07.417Z,75.00
2018-02-15T17:55:36.989Z,76.03
2018-02-15T17:58:07.150Z,58.50
2018-02-15T18:00:36.412Z,165.37
2018-02-15T18:03:06.725Z,76.63
2018-02-15T18:05:35.972Z,66.60
2018-02-15T18:08:06.568Z,64.53
2018-02-15T18:10:36.122Z,61.03
2018-02-15T18:13:06.057Z,71.33
2018-02-15T18:15:35.306Z,69.00
2018-02-15T18:18:07.218Z,60.53
2018-02-15T18:20:37.429Z,65.73
2018-02-15T18:23:08.438Z,68.50
2018-02-15T18:25:38.008Z,62.30
2018-02-15T18:28:08.363Z,72.63
2018-02-15T18:30:37.626Z,64.23
2018-02-15T18:33:07.477Z,64.07
2018-02-15T18:35:36.745Z,64.03
2018-02-15T18:38:06.854Z,69.93
2018-02-15T18:40:36.537Z,66.57
2018-02-15T18:43:06.058Z,68.57
2018-02-15T18:45:36.297Z,64.50
2018-02-15T18:48:08.245Z,66.73
2018-02-15T18:50:37.505Z,72.33
2018-02-15T18:53:06.847Z,69.60
2018-02-15T18:55:36.421Z,67.97
2018-02-15T18:58:06.814Z,72.73
2018-02-15T19:00:36.224Z,68.33
2018-02-15T19:03:06.363Z,69.87
2018-02-15T19:05:35.660Z,67.37
2018-02-15T19:08:06.039Z,70.37
2018-02-15T19:10:35.585Z,66.73
2018-02-15T19:13:05.659Z,73.10
2018-02-15T19:15:34.942Z,68.70
2018-02-15T19:18:07.321Z,69.13
2018-02-15T19:20:36.562Z,67.77
2018-02-15T19:23:05.925Z,61.90
2018-02-15T19:25:35.516Z,63.10
2018-02-15T19:28:06.298Z,64.50
2018-02-15T19:30:35.563Z,67.03
2018-02-15T19:35:32.878Z,67.10
2018-02-15T19:38:04.366Z,57.60
2018-02-15T19:40:34.136Z,64.30
2018-02-15T19:43:05.744Z,66.87
2018-02-15T19:45:35.602Z,70.97
2018-02-15T19:48:07.682Z,63.53
2018-02-15T19:50:37.253Z,59.70
2018-02-15T19:53:07.145Z,60.37
2018-02-15T19:55:36.429Z,62.10
2018-02-15T19:58:08.636Z,60.17
2018-02-15T20:00:37.914Z,63.40
2018-02-15T20:03:07.486Z,61.03
2018-02-15T20:05:36.960Z,67.10
2018-02-15T20:08:07.386Z,69.40
2018-02-15T20:10:36.939Z,67.93
2018-02-15T20:13:06.529Z,61.23
2018-02-15T20:15:39.822Z,65.20
2018-02-15T20:18:09.532Z,59.57
2018-02-15T20:20:38.785Z,63.00
2018-02-15T20:23:08.571Z,63.30
2018-02-15T20:25:38.255Z,72.07
2018-02-15T20:28:12.474Z,68.70
2018-02-15T20:30:42.070Z,58.90
2018-02-15T20:33:11.695Z,63.63
2018-02-15T20:35:40.964Z,69.43
2018-02-15T20:38:14.369Z,59.27
2018-02-15T20:40:44.392Z,60.63
2018-02-15T20:45:47.267Z,66.83
2018-02-15T20:48:17.134Z,136.30
2018-02-15T20:52:52.830Z,69.73
2018-02-15T20:58:35.710Z,64.13
2018-02-15T21:01:25.402Z,75.70
2018-02-15T21:03:54.915Z,77.27
2018-02-15T21:07:03.957Z,68.87
2018-02-15T21:09:53.242Z,79.03
2018-02-15T21:12:42.245Z,69.17
2018-02-15T21:15:32.772Z,67.13
2018-02-15T21:18:03.975Z,66.40
2018-02-15T21:20:53.550Z,61.33
2018-02-15T21:23:22.832Z,67.77
2018-02-15T21:26:33.040Z,60.83
2018-02-15T21:29:41.850Z,60.17
2018-02-15T21:32:31.154Z,60.07
2018-02-15T21:35:20.685Z,61.13
2018-02-15T21:38:10.940Z,69.83
2018-02-15T21:41:01.697Z,56.27
2018-02-15T21:44:11.198Z,61.17
2018-02-15T21:47:19.954Z,59.67
2018-02-15T21:50:29.066Z,57.33
2018-02-15T21:53:18.105Z,58.53
2018-02-15T21:56:07.347Z,53.40
2018-02-15T21:59:16.295Z,58.87
2018-02-15T22:01:45.854Z,51.93
2018-02-15T22:04:15.110Z,57.97
2018-02-15T22:07:04.453Z,56.70
2018-02-15T22:09:53.819Z,55.10
2018-02-15T22:12:42.819Z,51.00
2018-02-15T22:15:32.317Z,57.50
2018-02-15T22:18:03.140Z,58.23
2018-02-15T22:20:32.686Z,56.27
2018-02-15T22:23:22.807Z,62.93
2018-02-15T22:25:52.290Z,57.10
2018-02-15T22:28:21.588Z,62.27
2018-02-15T22:31:10.914Z,62.40
2018-02-15T22:34:20.029Z,55.00
2018-02-15T22:37:29.110Z,62.73
2018-02-15T22:40:25.754Z,56.73
2018-02-15T22:43:34.648Z,57.63
2018-02-15T22:46:28.370Z,53.50
2018-02-15T22:49:17.323Z,54.90
2018-02-15T22:51:46.900Z,60.33
2018-02-15T22:54:16.118Z,64.50
2018-02-15T22:57:06.122Z,60.47
2018-02-15T22:59:55.043Z,56.17
2018-02-15T23:02:44.026Z,54.40
2018-02-15T23:05:53.220Z,49.90
2018-02-15T23:09:03.087Z,55.10
2018-02-15T23:11:52.485Z,61.80
2018-02-15T23:14:41.416Z,57.47
2018-02-15T23:17:50.630Z,54.67
2018-02-15T23:20:19.860Z,55.47
2018-02-15T23:23:10.093Z,56.17
2018-02-15T23:26:19.599Z,62.80
2018-02-15T23:28:49.155Z,49.53
2018-02-15T23:31:18.405Z,60.60
2018-02-15T23:34:07.427Z,53.37
2018-02-15T23:36:57.433Z,55.63
2018-02-15T23:39:26.924Z,57.00
2018-02-15T23:41:56.952Z,58.00
2018-02-15T23:45:06.171Z,55.00
2018-02-15T23:48:16.107Z,55.00
2018-02-15T23:51:05.244Z,57.47
2018-02-15T23:53:54.864Z,56.70
2018-02-15T23:56:26.855Z,57.60
2018-02-15T23:59:36.513Z,59.23
